Time;durP1;ratioP1;P1;durP2;ratioP2;P2;SDS_P1;SDS_P2;PMS_P1;PMS_P2;Temp;Humidity;BMP_temperature;BMP_pressure;BME280_temperature;BME280_humidity;BME280_pressure;Samples;Min_cycle;Max_cycle;Signal;HPM_P1;HPM_P2
2022/09/15 00:01:40;;;;;;;5.57;1.33;;;;;;;14.59;100.00;100504.16;4967729;28;20031;-86
2022/09/15 00:04:09;;;;;;;5.82;1.85;;;;;;;14.59;100.00;100501.50;4961233;28;20524;-83
2022/09/15 00:06:37;;;;;;;5.10;1.63;;;;;;;14.59;100.00;100497.94;4935890;28;20055;-83
2022/09/15 00:09:06;;;;;;;6.22;1.83;;;;;;;14.61;100.00;100509.41;4950924;28;20043;-83
2022/09/15 00:11:36;;;;;;;4.78;1.20;;;;;;;14.61;100.00;100512.94;4969451;28;20043;-85
2022/09/15 00:14:06;;;;;;;3.05;1.20;;;;;;;14.60;100.00;100516.50;4966159;28;20055;-83
2022/09/15 00:16:35;;;;;;;3.67;1.48;;;;;;;14.60;100.00;100515.63;4972960;28;20043;-83
2022/09/15 00:19:05;;;;;;;6.93;1.55;;;;;;;14.61;100.00;100518.25;4962377;28;20066;-83
2022/09/15 00:21:37;;;;;;;5.70;2.08;;;;;;;14.61;100.00;100514.72;4967948;28;20385;-83
2022/09/15 00:24:07;;;;;;;2.70;1.05;;;;;;;14.59;100.00;100517.41;4966195;28;20343;-83
2022/09/15 00:26:36;;;;;;;2.67;1.10;;;;;;;14.60;100.00;100515.63;4926548;28;20058;-83
2022/09/15 00:29:04;;;;;;;9.50;1.63;;;;;;;14.60;100.00;100515.63;4933958;28;20929;-83
2022/09/15 00:31:33;;;;;;;5.80;1.52;;;;;;;14.59;100.00;100509.47;4952843;28;20055;-84
2022/09/15 00:34:03;;;;;;;3.47;1.40;;;;;;;14.61;100.00;100509.41;4961947;28;20051;-85
2022/09/15 00:36:31;;;;;;;5.15;1.23;;;;;;;14.63;100.00;100510.28;4968543;28;20031;-84
2022/09/15 00:39:00;;;;;;;4.78;1.35;;;;;;;14.64;100.00;100511.16;4949693;28;20432;-84
2022/09/15 00:41:29;;;;;;;4.00;1.10;;;;;;;14.64;100.00;100512.00;4938824;28;20507;-84
2022/09/15 00:44:04;;;;;;;3.20;1.00;;;;;;;14.65;100.00;100510.22;4981138;28;20343;-84
2022/09/15 00:46:52;;;;;;;6.57;0.98;;;;;;;14.66;100.00;100512.84;4955532;28;20400;-83
2022/09/15 00:49:44;;;;;;;;;;;;;;;14.65;100.00;100505.81;4967647;28;20047;-84
2022/09/15 00:52:26;;;;;;;3.22;1.00;;;;;;;14.67;100.00;100519.03;4980170;28;20445;-83
2022/09/15 00:55:01;;;;;;;3.83;1.40;;;;;;;14.68;100.00;100518.13;4952350;28;20046;-84
2022/09/15 00:57:46;;;;;;;4.15;1.08;;;;;;;14.69;100.00;100515.47;4954988;28;20050;-84
2022/09/15 01:00:20;;;;;;;3.10;1.02;;;;;;;14.73;100.00;100513.63;4980034;28;20267;-84
2022/09/15 01:02:49;;;;;;;4.10;1.27;;;;;;;14.74;100.00;100520.66;4964458;28;20065;-84
2022/09/15 01:05:40;;;;;;;3.78;0.93;;;;;;;14.76;100.00;100513.53;4947943;28;20051;-84
2022/09/15 01:08:41;;;;;;;5.10;1.42;;;;;;;14.76;100.00;100526.81;4965921;28;20362;-83
2022/09/15 01:11:10;;;;;;;5.13;1.30;;;;;;;14.76;100.00;100527.69;5014548;28;20449;-84
2022/09/15 01:13:38;;;;;;;6.43;1.40;;;;;;;14.77;100.00;100528.56;4953633;28;20038;-84
2022/09/15 01:16:26;;;;;;;6.28;1.38;;;;;;;14.77;100.00;100529.44;4951586;28;20414;-85
2022/09/15 01:19:23;;;;;;;8.07;1.60;;;;;;;14.78;100.00;100520.59;4964878;28;20377;-86
2022/09/15 01:22:18;;;;;;;5.95;1.33;;;;;;;14.79;100.00;100524.09;4891484;28;20437;-85
2022/09/15 01:25:01;;;;;;;4.40;1.40;;;;;;;14.78;100.00;100520.59;4965831;28;20066;-84
2022/09/15 01:27:39;;;;;;;8.65;1.77;;;;;;;14.78;100.00;100525.00;5013780;28;20052;-83
2022/09/15 01:30:15;;;;;;;6.70;2.00;;;;;;;14.76;100.00;100518.84;4948538;28;20031;-84
2022/09/15 01:33:05;;;;;;;5.05;1.40;;;;;;;14.78;100.00;100522.34;4951603;28;20054;-84
2022/09/15 01:36:02;;;;;;;7.32;1.40;;;;;;;14.76;100.00;100529.47;4959608;28;20507;-83
2022/09/15 01:38:32;;;;;;;5.60;1.58;;;;;;;14.75;100.00;100527.72;5002919;28;20028;-84
2022/09/15 01:41:04;;;;;;;5.78;1.40;;;;;;;14.75;100.00;100541.84;5012921;28;20102;-84
2022/09/15 01:43:38;;;;;;;4.15;1.13;;;;;;;14.76;100.00;100532.09;5040940;28;20043;-84
2022/09/15 01:46:09;;;;;;;3.72;1.38;;;;;;;14.77;100.00;100531.22;4947876;28;20376;-83
2022/09/15 01:48:38;;;;;;;4.90;1.45;;;;;;;14.77;100.00;100532.09;4976338;28;20062;-83
2022/09/15 01:51:08;;;;;;;6.00;1.47;;;;;;;14.79;100.00;100534.72;4962069;28;20388;-84
2022/09/15 01:53:37;;;;;;;4.80;1.20;;;;;;;14.80;100.00;100536.44;5033840;28;20644;-84
2022/09/15 01:56:10;;;;;;;3.20;1.10;;;;;;;14.80;100.00;100531.13;4980825;28;20070;-84
2022/09/15 01:58:41;;;;;;;7.55;1.35;;;;;;;14.79;100.00;100540.03;4956909;28;20042;-83
2022/09/15 02:01:15;;;;;;;3.85;1.40;;;;;;;14.78;100.00;100536.50;4949291;28;20137;-83
2022/09/15 02:03:54;;;;;;;6.35;1.83;;;;;;;14.79;100.00;100540.88;4954743;28;20043;-84
2022/09/15 02:06:34;;;;;;;3.97;1.15;;;;;;;14.79;100.00;100548.84;4987572;28;20047;-85
2022/09/15 02:09:13;;;;;;;4.22;1.05;;;;;;;14.77;100.00;100544.47;4953174;28;20274;-85
2022/09/15 02:11:57;;;;;;;7.22;1.50;;;;;;;14.74;100.00;100541.88;4968539;28;20053;-84
2022/09/15 02:14:52;;;;;;;6.78;1.90;;;;;;;14.71;100.00;100550.78;4990470;28;20051;-84
2022/09/15 02:17:23;;;;;;;8.25;1.17;;;;;;;14.67;100.00;100535.84;4973848;28;20039;-84
2022/09/15 02:19:57;;;;;;;4.68;1.20;;;;;;;14.65;100.00;100540.28;4965925;28;20048;-83
2022/09/15 02:22:30;;;;;;;6.10;1.30;;;;;;;14.62;100.00;100535.91;4991148;28;21212;-83
2022/09/15 02:25:03;;;;;;;4.47;1.20;;;;;;;14.61;100.00;100533.28;4960120;28;20051;-84
2022/09/15 02:27:37;;;;;;;3.55;1.25;;;;;;;14.60;100.00;100540.34;4995430;28;20050;-83
2022/09/15 02:30:10;;;;;;;4.28;1.20;;;;;;;14.59;100.00;100529.78;4963721;28;20039;-83
2022/09/15 02:32:46;;;;;;;8.65;1.88;;;;;;;14.57;100.00;100542.19;4966380;28;20499;-82
2022/09/15 02:35:16;;;;;;;3.53;1.20;;;;;;;14.58;100.00;100536.00;4955099;28;20488;-84
2022/09/15 02:37:47;;;;;;;3.88;1.13;;;;;;;14.56;100.00;100535.97;4955906;28;20031;-84
2022/09/15 02:40:16;;;;;;;5.50;1.55;;;;;;;14.58;100.00;100538.66;4963735;28;20059;-83
2022/09/15 02:42:54;;;;;;;6.93;1.02;;;;;;;14.58;100.00;100528.03;4965337;28;20038;-84
2022/09/15 02:45:24;;;;;;;5.50;1.55;;;;;;;14.58;100.00;100536.00;4956667;28;20054;-84
2022/09/15 02:47:53;;;;;;;6.78;1.60;;;;;;;14.58;100.00;100543.94;4961083;28;20082;-84
2022/09/15 02:50:25;;;;;;;4.50;1.55;;;;;;;14.58;100.00;100533.34;4943071;28;20053;-85
2022/09/15 02:52:54;;;;;;;3.60;1.35;;;;;;;14.57;100.00;100534.22;4957079;28;20195;-83
2022/09/15 02:55:23;;;;;;;5.10;1.17;;;;;;;14.55;100.00;100538.66;4923303;28;20395;-84
2022/09/15 02:57:52;;;;;;;4.38;1.27;;;;;;;14.54;100.00;100543.09;5016718;28;20090;-85
2022/09/15 03:00:20;;;;;;;4.95;1.42;;;;;;;14.55;100.00;100546.63;5020580;28;20048;-84
2022/09/15 03:02:52;;;;;;;5.53;2.40;;;;;;;14.54;100.00;100542.22;4975258;28;20070;-85
2022/09/15 03:05:26;;;;;;;8.80;1.58;;;;;;;14.51;100.00;100548.44;4923089;28;20054;-85
2022/09/15 03:07:55;;;;;;;6.00;1.55;;;;;;;14.50;100.00;100545.81;4967899;28;20573;-83
2022/09/15 03:10:24;;;;;;;5.07;1.63;;;;;;;14.51;100.00;100544.91;4941447;28;20415;-84
2022/09/15 03:12:54;;;;;;;7.32;1.55;;;;;;;14.51;100.00;100537.84;4949517;28;20062;-83
2022/09/15 03:15:24;;;;;;;4.60;1.67;;;;;;;14.52;100.00;100536.09;4963744;28;20055;-83
2022/09/15 03:17:53;;;;;;;5.50;1.83;;;;;;;14.52;100.00;100536.09;5014725;28;20057;-84
2022/09/15 03:20:27;;;;;;;5.65;1.65;;;;;;;14.52;100.00;100533.44;4898660;28;20050;-84
2022/09/15 03:22:55;;;;;;;8.25;1.70;;;;;;;14.52;100.00;100534.28;4966381;28;20059;-83
2022/09/15 03:25:25;;;;;;;7.32;1.10;;;;;;;14.53;100.00;100538.69;4994605;28;20576;-85
2022/09/15 03:27:54;;;;;;;5.95;1.63;;;;;;;14.51;100.00;100529.88;4998903;28;20058;-85
2022/09/15 03:30:23;;;;;;;6.53;1.30;;;;;;;14.52;100.00;100536.09;4948959;28;20114;-85
2022/09/15 03:32:51;;;;;;;10.20;2.05;;;;;;;14.51;100.00;100531.66;4934857;28;20054;-84
2022/09/15 03:35:19;;;;;;;10.23;1.95;;;;;;;14.50;100.00;100520.19;4973640;28;20053;-84
2022/09/15 03:37:50;;;;;;;8.13;1.70;;;;;;;14.50;100.00;100533.44;4946272;28;20419;-83
2022/09/15 03:40:19;;;;;;;6.38;1.63;;;;;;;14.50;100.00;100521.94;4953077;28;20057;-85
2022/09/15 03:42:47;;;;;;;5.45;1.35;;;;;;;14.49;100.00;100521.09;5018313;28;20042;-84
2022/09/15 03:45:16;;;;;;;5.85;1.60;;;;;;;14.49;100.00;100530.81;4974109;28;20043;-84
2022/09/15 03:47:46;;;;;;;6.43;1.48;;;;;;;14.49;100.00;100522.88;5033233;28;20051;-84
2022/09/15 03:50:15;;;;;;;9.38;1.90;;;;;;;14.48;100.00;100531.72;4947739;28;20039;-85
2022/09/15 03:52:46;;;;;;;8.80;2.27;;;;;;;14.47;100.00;100535.28;4924278;28;20156;-84
2022/09/15 03:55:15;;;;;;;6.18;2.28;;;;;;;14.47;100.00;100546.75;5004277;28;20295;-84
2022/09/15 03:57:44;;;;;;;10.38;1.58;;;;;;;14.50;100.00;100540.50;4921134;28;20149;-83
2022/09/15 04:00:13;;;;;;;6.40;2.10;;;;;;;14.51;100.00;100553.75;4955416;28;20047;-86
2022/09/15 04:02:42;;;;;;;8.10;2.10;;;;;;;14.51;100.00;100552.88;4940615;28;20035;-84
2022/09/15 04:05:12;;;;;;;6.53;1.80;;;;;;;14.51;100.00;100544.91;4947874;28;20050;-84
2022/09/15 04:07:40;;;;;;;11.80;2.07;;;;;;;14.49;100.00;100549.38;4951697;28;22868;-84
2022/09/15 04:10:10;;;;;;;7.80;1.80;;;;;;;14.48;100.00;100542.31;4950177;28;20042;-85
2022/09/15 04:12:47;;;;;;;;;;;;;;;14.46;100.00;100538.81;4947843;28;20051;-83
2022/09/15 04:15:15;;;;;;;7.72;1.52;;;;;;;14.45;100.00;100542.38;4965664;28;19945;-84
2022/09/15 04:17:43;;;;;;;8.57;2.13;;;;;;;14.42;100.00;100533.59;4965132;28;20515;-84
2022/09/15 04:20:12;;;;;;;6.50;1.60;;;;;;;14.42;100.00;100538.91;4954880;28;20039;-84
2022/09/15 04:22:41;;;;;;;6.90;1.38;;;;;;;14.42;100.00;100530.94;4940107;28;20050;-83
2022/09/15 04:25:09;;;;;;;4.97;1.20;;;;;;;14.41;100.00;100537.13;4949137;28;20039;-85
2022/09/15 04:27:38;;;;;;;3.85;1.02;;;;;;;14.41;100.00;100526.53;4953683;28;20058;-83
2022/09/15 04:30:08;;;;;;;4.68;1.15;;;;;;;14.41;100.00;100530.97;4975082;28;20036;-85
2022/09/15 04:32:36;;;;;;;5.38;0.80;;;;;;;14.42;100.00;100532.69;4987540;28;20624;-84
2022/09/15 04:35:05;;;;;;;4.80;1.27;;;;;;;14.42;100.00;100536.25;4937546;28;20047;-84
2022/09/15 04:37:34;;;;;;;3.10;0.80;;;;;;;14.41;100.00;100526.53;4932846;28;20074;-84
2022/09/15 04:40:03;;;;;;;1.90;0.80;;;;;;;14.39;100.00;100530.13;4951945;28;20050;-83
2022/09/15 04:42:32;;;;;;;4.33;0.93;;;;;;;14.39;99.99;100530.13;4974248;28;20055;-85
2022/09/15 04:45:00;;;;;;;2.25;0.75;;;;;;;14.40;99.93;100529.19;4960926;28;20047;-84
2022/09/15 04:47:29;;;;;;;3.85;0.98;;;;;;;14.40;99.76;100530.09;4948596;28;20353;-85
2022/09/15 04:50:00;;;;;;;2.67;0.93;;;;;;;14.41;99.92;100526.53;4919730;28;20043;-83
2022/09/15 04:52:29;;;;;;;2.95;1.30;;;;;;;14.42;100.00;100517.69;5020822;28;20043;-85
2022/09/15 04:54:59;;;;;;;2.58;0.82;;;;;;;14.43;100.00;100514.13;4942485;28;20038;-84
2022/09/15 04:57:27;;;;;;;3.33;1.00;;;;;;;14.43;100.00;100524.72;4953731;28;20677;-84
2022/09/15 04:59:56;;;;;;;4.05;0.75;;;;;;;14.43;100.00;100530.03;4973568;28;20053;-83
2022/09/15 05:02:24;;;;;;;1.73;0.77;;;;;;;14.44;100.00;100530.88;4949430;28;20065;-84
2022/09/15 05:04:53;;;;;;;4.10;1.17;;;;;;;14.45;100.00;100529.13;4966233;28;20043;-83
2022/09/15 05:07:21;;;;;;;3.28;1.00;;;;;;;14.45;100.00;100534.44;4932984;28;20058;-85
2022/09/15 05:09:50;;;;;;;3.30;1.70;;;;;;;14.43;100.00;100535.31;4949130;28;20039;-84
2022/09/15 05:12:18;;;;;;;5.43;1.23;;;;;;;14.42;100.00;100543.28;4952362;28;20063;-85
2022/09/15 05:14:47;;;;;;;3.83;1.08;;;;;;;14.43;100.00;100543.28;4977722;28;20046;-81
2022/09/15 05:17:15;;;;;;;5.95;1.40;;;;;;;14.43;100.00;100532.66;4947469;28;20055;-80
2022/09/15 05:19:45;;;;;;;2.92;1.48;;;;;;;14.45;100.00;100540.59;4972635;28;20034;-79
2022/09/15 05:22:13;;;;;;;2.75;1.33;;;;;;;14.48;100.00;100542.31;4956479;28;20407;-81
2022/09/15 05:24:42;;;;;;;6.57;1.17;;;;;;;14.50;100.00;100535.22;4954179;28;20061;-81
2022/09/15 05:27:10;;;;;;;9.15;1.50;;;;;;;14.49;100.00;100529.03;4942598;28;20051;-80
2022/09/15 05:29:39;;;;;;;4.60;1.55;;;;;;;14.51;100.00;100536.97;4945621;28;20069;-81
2022/09/15 05:32:07;;;;;;;5.07;1.83;;;;;;;14.52;100.00;100533.44;4980711;28;20395;-81
2022/09/15 05:34:36;;;;;;;4.40;1.30;;;;;;;14.53;100.00;100540.47;4975646;28;20054;-81
2022/09/15 05:37:04;;;;;;;5.47;1.80;;;;;;;14.53;100.00;100532.50;4978826;28;20039;-81
2022/09/15 05:39:33;;;;;;;2.90;1.30;;;;;;;14.52;100.00;100538.72;4963397;28;20051;-81
2022/09/15 05:42:01;;;;;;;5.75;1.90;;;;;;;14.52;100.00;100525.47;4946939;28;20530;-81
2022/09/15 05:44:30;;;;;;;11.73;1.80;;;;;;;14.52;100.00;100538.72;4972145;28;20065;-80
2022/09/15 05:46:58;;;;;;;5.25;1.35;;;;;;;14.52;100.00;100525.47;4929804;28;20043;-80
2022/09/15 05:49:28;;;;;;;8.52;1.50;;;;;;;14.52;100.00;100526.34;4999857;28;20501;-80
2022/09/15 05:51:57;;;;;;;7.65;1.60;;;;;;;14.53;100.00;100528.06;4938763;28;20058;-80
2022/09/15 05:54:26;;;;;;;7.35;1.70;;;;;;;14.54;100.00;100527.19;4957630;28;20164;-80
2022/09/15 05:56:55;;;;;;;7.65;1.48;;;;;;;14.54;100.00;100527.19;4923980;28;20046;-82
2022/09/15 05:59:23;;;;;;;8.82;2.10;;;;;;;14.55;100.00;100530.69;4973849;28;20050;-80
2022/09/15 06:01:52;;;;;;;8.23;1.45;;;;;;;14.54;100.00;100526.31;4943295;28;20392;-80
2022/09/15 06:04:20;;;;;;;9.00;2.15;;;;;;;14.53;100.00;100536.03;4947967;28;20441;-81
2022/09/15 06:06:51;;;;;;;12.88;1.58;;;;;;;14.53;100.00;100530.72;4953744;28;20050;-79
2022/09/15 06:09:19;;;;;;;4.57;1.30;;;;;;;14.54;100.00;100528.97;4927656;28;20255;-79
2022/09/15 06:11:51;;;;;;;9.15;2.05;;;;;;;14.55;100.00;100528.91;4946200;28;20035;-79
2022/09/15 06:14:21;;;;;;;6.93;1.65;;;;;;;14.59;100.00;100533.31;4925171;28;20062;-79
2022/09/15 06:16:49;;;;;;;7.13;1.80;;;;;;;14.62;100.00;100529.72;4949686;28;20055;-79
2022/09/15 06:19:18;;;;;;;7.13;1.92;;;;;;;14.67;100.00;100538.47;4949509;28;20157;-80
2022/09/15 06:21:48;;;;;;;11.00;1.77;;;;;;;14.71;100.00;100534.00;4960048;28;20054;-80
2022/09/15 06:24:16;;;;;;;5.90;1.40;;;;;;;14.73;100.00;100537.50;4940895;28;20062;-80
2022/09/15 06:26:44;;;;;;;5.68;1.40;;;;;;;14.75;100.00;100535.69;4953705;28;20042;-80
2022/09/15 06:29:13;;;;;;;5.43;1.20;;;;;;;14.76;100.00;100533.00;4929409;28;20035;-81
2022/09/15 06:31:42;;;;;;;4.20;1.60;;;;;;;14.75;100.00;100539.19;4953570;28;20518;-81
2022/09/15 06:34:10;;;;;;;5.50;1.60;;;;;;;14.77;100.00;100541.84;4963495;28;20534;-81
2022/09/15 06:36:39;;;;;;;6.25;1.48;;;;;;;14.73;100.00;100533.06;4964023;28;20047;-82
2022/09/15 06:39:08;;;;;;;7.22;1.42;;;;;;;14.71;100.00;100532.22;5044118;28;20039;-81
2022/09/15 06:41:38;;;;;;;6.63;1.30;;;;;;;14.68;100.00;100534.03;4952795;28;20070;-81
2022/09/15 06:44:28;;;;;;;5.78;1.83;;;;;;;14.68;100.00;100536.69;4928694;28;20795;-81
2022/09/15 06:46:58;;;;;;;3.75;1.17;;;;;;;14.70;100.00;100534.88;4946560;28;20069;-82
2022/09/15 06:49:27;;;;;;;10.55;1.52;;;;;;;14.71;100.00;100532.22;4943215;28;20253;-82
2022/09/15 06:52:03;;;;;;;6.38;1.63;;;;;;;14.70;100.00;100533.09;4956662;28;20035;-80
2022/09/15 06:54:32;;;;;;;5.72;1.40;;;;;;;14.71;100.00;100534.88;4967673;28;20059;-82
2022/09/15 06:57:00;;;;;;;5.47;1.48;;;;;;;14.71;100.00;100534.88;4964166;28;20044;-82
2022/09/15 06:59:29;;;;;;;3.47;1.38;;;;;;;14.73;100.00;100541.00;4952554;28;20047;-81
2022/09/15 07:01:57;;;;;;;5.60;1.80;;;;;;;14.81;100.00;100541.72;4914939;28;20059;-81
2022/09/15 07:04:35;;;;;;;7.82;1.60;;;;;;;14.90;100.00;100542.47;4944547;28;20038;-82
2022/09/15 07:07:04;;;;;;;4.18;1.20;;;;;;;14.97;100.00;100547.63;4949308;28;20610;-82
2022/09/15 07:09:32;;;;;;;4.57;1.50;;;;;;;15.06;100.00;100540.38;4965746;28;20047;-83
2022/09/15 07:12:01;;;;;;;5.30;1.30;;;;;;;15.14;100.00;100544.63;4984387;28;20175;-81
2022/09/15 07:14:29;;;;;;;7.00;1.42;;;;;;;15.21;100.00;100542.72;4941722;28;20043;-81
2022/09/15 07:16:58;;;;;;;4.78;1.55;;;;;;;15.25;100.00;100544.41;4933574;28;20047;-80
2022/09/15 07:19:28;;;;;;;4.88;1.13;;;;;;;15.28;100.00;100549.66;4942822;28;20575;-81
2022/09/15 07:21:57;;;;;;;4.47;1.40;;;;;;;15.30;100.00;100555.78;4926415;28;20195;-82
2022/09/15 07:24:26;;;;;;;5.03;1.45;;;;;;;15.35;100.00;100553.94;4971393;28;20527;-82
2022/09/15 07:26:55;;;;;;;7.35;1.65;;;;;;;15.39;100.00;100565.38;4949551;28;20055;-82
2022/09/15 07:29:24;;;;;;;4.47;1.30;;;;;;;15.44;100.00;100563.47;4943296;28;20363;-81
2022/09/15 07:31:54;;;;;;;6.80;1.20;;;;;;;15.49;100.00;100563.38;4943353;28;20561;-81
2022/09/15 07:34:23;;;;;;;3.97;1.20;;;;;;;15.50;100.00;100571.31;4959716;28;20059;-80
2022/09/15 07:36:53;;;;;;;8.85;1.98;;;;;;;15.52;100.00;100566.84;4935221;28;20109;-80
2022/09/15 07:39:22;;;;;;;5.40;1.63;;;;;;;15.54;100.00;100578.31;4926667;28;20059;-80
2022/09/15 07:41:51;;;;;;;8.20;1.52;;;;;;;15.56;100.00;100581.81;4964933;28;20043;-82
2022/09/15 07:44:19;;;;;;;7.88;1.30;;;;;;;15.65;100.00;100582.50;4945346;28;20267;-81
2022/09/15 07:46:48;;;;;;;5.20;1.40;;;;;;;15.75;100.00;100589.41;4946107;28;20039;-80
2022/09/15 07:49:16;;;;;;;8.32;1.52;;;;;;;15.84;100.00;100586.53;4989962;28;20050;-80
2022/09/15 07:51:44;;;;;;;4.80;1.20;;;;;;;15.93;100.00;100591.63;4962680;28;20047;-80
2022/09/15 07:54:13;;;;;;;5.30;1.20;;;;;;;16.04;100.00;100591.38;4955837;28;20039;-80
2022/09/15 07:56:48;;;;;;;6.18;1.10;;;;;;;16.12;100.00;100604.50;4956858;28;20047;-82
2022/09/15 07:59:17;;;;;;;4.55;1.23;;;;;;;16.18;100.00;100605.22;4953811;28;20051;-81
2022/09/15 08:01:46;;;;;;;4.78;1.17;;;;;;;16.23;100.00;100596.25;4939784;28;20042;-81
2022/09/15 08:04:14;;;;;;;3.78;0.80;;;;;;;16.25;100.00;100597.97;4941081;28;20340;-81
2022/09/15 08:06:43;;;;;;;3.33;1.25;;;;;;;16.25;100.00;100597.97;4970508;28;20046;-80
2022/09/15 08:09:16;;;;;;;3.20;1.00;;;;;;;16.35;100.00;100596.84;4960815;28;20070;-80
2022/09/15 08:11:44;;;;;;;4.22;1.40;;;;;;;16.52;100.00;100595.53;4953795;28;20512;-81
2022/09/15 08:14:13;;;;;;;1.88;1.00;;;;;;;16.70;100.00;100603.03;4963050;28;20039;-80
2022/09/15 08:16:41;;;;;;;4.75;1.75;;;;;;;16.85;100.00;100606.25;4946493;28;20077;-82
2022/09/15 08:19:11;;;;;;;4.32;1.25;;;;;;;16.88;100.00;100611.47;4910248;28;20438;-80
2022/09/15 08:21:39;;;;;;;5.03;1.20;;;;;;;16.74;100.00;100623.31;4957545;28;20054;-81
2022/09/15 08:24:08;;;;;;;3.97;1.10;;;;;;;16.38;100.00;100631.31;4953841;28;20039;-80
2022/09/15 08:26:40;;;;;;;4.53;1.13;;;;;;;16.13;100.00;100622.19;4959352;28;20047;-82
2022/09/15 08:29:09;;;;;;;7.70;1.00;;;;;;;15.92;100.00;100626.22;4969908;28;20404;-81
2022/09/15 08:31:38;;;;;;;3.05;1.17;;;;;;;15.78;100.00;100639.78;4962429;28;20519;-82
2022/09/15 08:34:10;;;;;;;6.35;1.90;;;;;;;15.71;100.00;100638.16;4935083;28;20057;-82
2022/09/15 08:36:40;;;;;;;4.82;1.10;;;;;;;15.68;100.00;100632.91;4996663;28;20046;-80
2022/09/15 08:39:08;;;;;;;5.97;0.85;;;;;;;15.64;100.00;100640.06;4963589;28;20038;-80
2022/09/15 08:41:45;;;;;;;5.15;1.10;;;;;;;15.60;100.00;100639.25;4966019;28;20047;-81
2022/09/15 08:44:43;;;;;;;4.65;1.10;;;;;;;15.63;100.00;100635.66;4938761;28;20035;-82
2022/09/15 08:47:26;;;;;;;4.45;1.10;;;;;;;15.66;100.00;100637.38;4994002;28;20054;-81
2022/09/15 08:50:37;;;;;;;6.00;1.15;;;;;;;15.69;100.00;100638.19;4954015;28;20395;-78
2022/09/15 08:53:11;;;;;;;3.67;0.90;;;;;;;15.72;100.00;100650.53;4947023;28;20541;-80
2022/09/15 08:55:47;;;;;;;3.60;1.45;;;;;;;15.70;100.00;100647.91;4989609;28;20504;-81
2022/09/15 08:58:18;;;;;;;2.60;0.90;;;;;;;15.71;100.00;100648.78;4927293;28;20077;-79
2022/09/15 09:00:51;;;;;;;7.82;1.20;;;;;;;15.76;100.00;100649.59;5000260;28;20034;-79
2022/09/15 09:03:35;;;;;;;5.97;1.15;;;;;;;15.85;100.00;100638.75;4967114;28;20586;-79
2022/09/15 09:06:21;;;;;;;5.88;1.30;;;;;;;15.95;100.00;100639.41;4918678;28;20050;-80
2022/09/15 09:08:56;;;;;;;4.35;1.10;;;;;;;16.10;100.00;100638.22;4984830;28;20703;-79
2022/09/15 09:11:54;;;;;;;1.98;1.10;;;;;;;16.20;100.00;100639.75;4951863;28;20054;-79
2022/09/15 09:14:37;;;;;;;5.03;1.00;;;;;;;16.27;100.00;100643.13;4993526;28;20404;-80
2022/09/15 09:17:29;;;;;;;3.70;1.17;;;;;;;16.36;98.26;100651.75;4967136;28;20047;-80
2022/09/15 09:20:14;;;;;;;7.55;1.10;;;;;;;16.56;96.72;100642.44;4955621;28;20054;-79
2022/09/15 09:22:45;;;;;;;1.90;0.90;;;;;;;16.72;97.25;100638.47;4939946;28;20051;-80
2022/09/15 09:25:17;;;;;;;2.58;1.15;;;;;;;16.81;94.45;100655.13;4970333;28;20468;-80
2022/09/15 09:28:00;;;;;;;2.95;0.82;;;;;;;16.86;93.41;100647.91;4960858;28;20047;-80
2022/09/15 09:30:33;;;;;;;2.10;0.98;;;;;;;16.94;93.54;100649.47;4969575;28;20051;-80
2022/09/15 09:33:12;;;;;;;2.10;0.80;;;;;;;17.05;92.31;100657.19;4956847;28;20264;-81
2022/09/15 09:35:47;;;;;;;3.83;1.20;;;;;;;17.10;90.51;100655.25;4949348;28;20045;-80
2022/09/15 09:38:20;;;;;;;2.70;1.00;;;;;;;17.11;90.52;100656.13;4942684;28;20051;-80
2022/09/15 09:40:51;;;;;;;5.28;1.15;;;;;;;17.16;91.93;100659.53;4963305;28;20051;-80
2022/09/15 09:43:20;;;;;;;5.35;1.10;;;;;;;17.22;92.15;100658.50;4964318;28;20039;-80
2022/09/15 09:45:49;;;;;;;4.30;0.85;;;;;;;17.27;92.56;100651.25;4965043;28;20054;-80
2022/09/15 09:48:27;;;;;;;3.03;1.20;;;;;;;17.34;92.13;100651.03;5043731;28;20045;-79
2022/09/15 09:50:55;;;;;;;4.55;1.10;;;;;;;17.39;90.92;100647.38;4934840;28;20350;-79
2022/09/15 09:53:35;;;;;;;7.60;1.20;;;;;;;17.49;90.73;100640.88;4935165;28;20038;-79
2022/09/15 09:56:10;;;;;;;1.95;0.82;;;;;;;17.56;91.25;100641.56;4971827;28;20211;-78
2022/09/15 09:58:39;;;;;;;9.25;1.63;;;;;;;17.57;91.18;100648.66;4940899;28;20043;-80
2022/09/15 10:01:13;;;;;;;4.00;1.20;;;;;;;17.49;90.71;100648.88;4933603;28;20043;-79
2022/09/15 10:03:43;;;;;;;4.22;0.90;;;;;;;17.38;91.42;100651.84;4978520;28;20059;-81
2022/09/15 10:06:14;;;;;;;5.63;1.40;;;;;;;17.26;93.53;100650.41;4974126;28;20046;-79
2022/09/15 10:09:03;;;;;;;2.95;1.13;;;;;;;17.10;95.63;100659.69;4934316;28;20125;-80
2022/09/15 10:11:46;;;;;;;4.60;1.20;;;;;;;16.90;96.84;100661.13;4972471;28;20055;-79
2022/09/15 10:14:26;;;;;;;3.60;0.93;;;;;;;16.74;97.08;100663.25;4979204;28;20031;-80
2022/09/15 10:17:01;;;;;;;3.20;1.10;;;;;;;16.62;97.89;100652.06;4962095;28;20319;-80
2022/09/15 10:19:35;;;;;;;4.15;1.20;;;;;;;16.60;98.89;100660.06;4958248;28;20051;-80
2022/09/15 10:22:04;;;;;;;4.50;1.02;;;;;;;16.71;98.87;100655.34;4977380;28;20574;-79
2022/09/15 10:24:37;;;;;;;6.82;1.20;;;;;;;16.86;98.61;100647.91;4925342;28;20164;-81
2022/09/15 10:27:14;;;;;;;5.63;1.55;;;;;;;17.00;98.23;100658.22;4976458;28;20039;-80
2022/09/15 10:29:44;;;;;;;4.18;1.80;;;;;;;17.02;96.21;100654.59;4970662;28;20058;-81
2022/09/15 10:32:18;;;;;;;8.13;1.57;;;;;;;17.01;94.33;100660.81;4965794;28;20057;-79
2022/09/15 10:35:17;;;;;;;4.10;1.25;;;;;;;17.03;92.54;100651.03;4946413;28;20617;-79
2022/09/15 10:37:54;;;;;;;5.95;1.20;;;;;;;17.04;94.22;100652.75;4936812;28;20046;-80
2022/09/15 10:40:43;;;;;;;2.92;0.88;;;;;;;17.04;93.62;100657.22;4932088;28;20062;-81
2022/09/15 10:43:57;;;;;;;3.67;1.40;;;;;;;17.03;93.04;100659.00;4963157;28;20459;-79
2022/09/15 10:46:38;;;;;;;4.40;1.15;;;;;;;16.97;94.12;100690.22;4993651;28;20054;-79
2022/09/15 10:49:29;;;;;;;8.30;1.27;;;;;;;16.70;98.83;100679.34;4950156;28;20062;-80
2022/09/15 10:52:17;;;;;;;8.13;1.23;;;;;;;16.40;99.94;100663.19;4967621;28;20171;-81
2022/09/15 10:54:54;;;;;;;8.45;1.50;;;;;;;16.17;100.00;100667.28;4965898;28;20395;-80
2022/09/15 10:57:52;;;;;;;4.68;1.23;;;;;;;16.09;100.00;100671.03;4965415;28;20046;-81
2022/09/15 11:00:24;;;;;;;2.70;1.02;;;;;;;16.03;100.00;100668.47;4963624;28;20047;-82
2022/09/15 11:03:19;;;;;;;2.08;1.02;;;;;;;15.98;100.00;100672.13;4957826;28;20262;-80
2022/09/15 11:06:14;;;;;;;3.60;1.05;;;;;;;15.92;100.00;100669.59;5025925;28;20243;-81
2022/09/15 11:09:13;;;;;;;2.53;1.27;;;;;;;15.86;100.00;100674.16;4950646;28;20051;-79
2022/09/15 11:11:51;;;;;;;7.78;1.50;;;;;;;15.78;100.00;100667.25;4973952;28;20050;-79
2022/09/15 11:14:36;;;;;;;3.33;1.10;;;;;;;15.72;100.00;100693.03;4966265;28;20051;-80
2022/09/15 11:18:00;;;;;;;7.05;2.40;;;;;;;15.56;100.00;100696.00;4965507;28;20062;-79
2022/09/15 11:20:36;;;;;;;10.95;1.77;;;;;;;15.25;100.00;100701.00;4978229;28;20074;-80
2022/09/15 11:23:14;;;;;;;8.30;1.92;;;;;;;15.12;100.00;100695.06;4950979;28;20047;-79
2022/09/15 11:25:47;;;;;;;6.60;1.60;;;;;;;14.99;100.00;100714.78;4928034;28;20043;-80
2022/09/15 11:28:21;;;;;;;2.88;1.08;;;;;;;14.84;100.00;100715.91;4956288;28;20066;-80
2022/09/15 11:30:59;;;;;;;6.20;1.20;;;;;;;14.72;100.00;100701.03;4961458;28;20743;-79
2022/09/15 11:33:55;;;;;;;7.53;1.55;;;;;;;14.61;100.00;100697.69;4970192;28;20399;-80
2022/09/15 11:36:40;;;;;;;6.75;1.50;;;;;;;14.56;100.00;100699.50;4958268;28;20058;-79
2022/09/15 11:39:19;;;;;;;3.78;1.98;;;;;;;14.57;100.00;100704.84;4952418;28;20054;-79
2022/09/15 11:41:55;;;;;;;7.93;2.20;;;;;;;14.65;100.00;100703.81;4926530;28;20039;-79
2022/09/15 11:44:31;;;;;;;5.45;1.30;;;;;;;14.78;100.00;100698.31;4963241;28;20408;-79
2022/09/15 11:47:29;;;;;;;3.88;1.65;;;;;;;14.91;100.00;100704.25;4966722;28;20047;-79
2022/09/15 11:50:17;;;;;;;3.65;1.25;;;;;;;15.04;100.00;100704.94;5046113;28;20396;-78